Terminal Aerodrome Forecast
Issued by NWS Paducah, KY

Home | Current Version | Previous Version | Text Only | Print | Product List | Glossary On
Versions: 1 2 3 4 5 6 7 8 9 10 11 12 13 14 15 16 17 18
000
FTUS43 KPAH 221300 AAA
TAFEVV
TAF AMD
KEVV 221300Z 2213/2312 10004KT P6SM OVC012
     FM221500 13007KT P6SM OVC010
     FM221800 14009KT P6SM -SHRA OVC009
     FM222100 14011G17KT 4SM SHRA BR OVC006
     FM230500 21008KT 3SM -DZ BR OVC005
     FM231000 23007KT 6SM BR OVC004=

USA.gov is the U.S. government's official web portal to all federal, state and local government web resources and services.